createdAt,value
2022-09-02T00:00:25.515Z,20.06
2022-09-02T00:02:55.418Z,20.04
2022-09-02T00:05:25.173Z,20.04
2022-09-02T00:07:55.699Z,20.02
2022-09-02T00:10:30.066Z,20.00
2022-09-02T00:13:02.146Z,19.92
2022-09-02T00:15:35.239Z,20.00
2022-09-02T00:18:14.228Z,19.94
2022-09-02T00:20:48.889Z,19.98
2022-09-02T00:23:18.648Z,20.03
2022-09-02T00:25:50.376Z,20.03
2022-09-02T00:28:23.154Z,20.04
2022-09-02T00:30:54.760Z,20.01
2022-09-02T00:33:24.868Z,20.01
2022-09-02T00:35:54.680Z,19.94
2022-09-02T00:38:24.027Z,19.92
2022-09-02T00:40:55.144Z,19.97
2022-09-02T00:43:38.982Z,19.81
2022-09-02T00:46:12.430Z,19.96
2022-09-02T00:48:48.446Z,19.94
2022-09-02T00:51:21.900Z,19.99
2022-09-02T00:53:52.372Z,20.01
2022-09-02T00:56:32.495Z,19.87
2022-09-02T00:59:04.888Z,20.00
2022-09-02T01:01:34.590Z,19.98
2022-09-02T01:04:06.293Z,19.90
2022-09-02T01:06:35.948Z,19.93
2022-09-02T01:09:12.047Z,19.95
2022-09-02T01:11:48.072Z,19.87
2022-09-02T01:14:18.632Z,19.94
2022-09-02T01:16:52.582Z,19.87
2022-09-02T01:19:25.920Z,19.89
2022-09-02T01:21:59.684Z,19.93
2022-09-02T01:24:33.085Z,19.81
2022-09-02T01:27:02.462Z,19.91
2022-09-02T01:29:32.002Z,19.90
2022-09-02T01:32:02.627Z,19.91
2022-09-02T01:34:32.038Z,19.90
2022-09-02T01:37:03.346Z,19.69
2022-09-02T01:39:32.626Z,19.83
2022-09-02T01:42:03.188Z,19.79
2022-09-02T01:44:39.045Z,19.73
2022-09-02T01:47:08.266Z,19.74
2022-09-02T01:49:40.751Z,19.71
2022-09-02T01:52:11.837Z,19.70
2022-09-02T01:54:41.547Z,19.74
2022-09-02T01:57:11.197Z,19.71
2022-09-02T01:59:43.881Z,19.66
2022-09-02T02:02:13.228Z,19.64
2022-09-02T02:04:46.208Z,19.54
2022-09-02T02:07:22.621Z,19.52
2022-09-02T02:09:53.551Z,19.58
2022-09-02T02:12:23.638Z,19.49
2022-09-02T02:14:53.505Z,19.51
2022-09-02T02:17:24.549Z,19.50
2022-09-02T02:19:53.672Z,19.49
2022-09-02T02:22:24.395Z,19.48
2022-09-02T02:24:53.771Z,19.43
2022-09-02T02:27:22.980Z,19.41
2022-09-02T02:29:52.462Z,19.44
2022-09-02T02:32:26.182Z,19.45
2022-09-02T02:34:56.392Z,19.35
2022-09-02T02:37:27.739Z,19.44
2022-09-02T02:39:57.509Z,19.43
2022-09-02T02:42:29.550Z,19.40
2022-09-02T02:44:59.206Z,19.47
2022-09-02T02:47:29.043Z,19.50
2022-09-02T02:49:58.507Z,19.49
2022-09-02T02:52:29.510Z,19.50
2022-09-02T02:54:59.249Z,19.49
2022-09-02T02:57:28.564Z,19.46
2022-09-02T02:59:58.162Z,19.45
2022-09-02T03:02:27.626Z,19.46
2022-09-02T03:04:57.106Z,19.45
2022-09-02T03:07:28.386Z,19.45
2022-09-02T03:09:57.809Z,19.44
2022-09-02T03:12:27.236Z,19.45
2022-09-02T03:14:56.881Z,19.41
2022-09-02T03:17:27.258Z,19.31
2022-09-02T03:19:59.665Z,19.33
2022-09-02T03:22:35.928Z,19.36
2022-09-02T03:25:08.366Z,19.28
2022-09-02T03:27:39.863Z,18.98
2022-09-02T03:30:12.811Z,19.15
2022-09-02T03:32:43.209Z,18.96
2022-09-02T03:35:19.259Z,19.13
2022-09-02T03:37:51.903Z,19.07
2022-09-02T03:40:24.515Z,19.01
2022-09-02T03:43:00.139Z,18.98
2022-09-02T03:45:32.141Z,19.14
2022-09-02T03:48:06.703Z,19.16
2022-09-02T03:50:44.274Z,19.12
2022-09-02T03:53:20.543Z,19.10
2022-09-02T03:55:58.729Z,19.07
2022-09-02T03:58:30.133Z,19.08
2022-09-02T04:01:02.441Z,18.94
2022-09-02T04:03:33.417Z,19.09
2022-09-02T04:06:04.214Z,19.06
2022-09-02T04:08:35.368Z,19.12
2022-09-02T04:11:09.752Z,19.12
2022-09-02T04:13:39.943Z,19.12
2022-09-02T04:16:11.830Z,19.05
2022-09-02T04:18:41.570Z,18.97
2022-09-02T04:21:13.958Z,18.99
2022-09-02T04:23:45.335Z,18.98
2022-09-02T04:26:18.688Z,19.05
2022-09-02T04:28:48.791Z,18.98
2022-09-02T04:31:22.577Z,19.05
2022-09-02T04:33:53.354Z,19.00
2022-09-02T04:36:24.299Z,18.95
2022-09-02T04:38:59.970Z,18.88
2022-09-02T04:41:34.723Z,18.94
2022-09-02T04:44:08.312Z,18.85
2022-09-02T04:46:41.742Z,18.78
2022-09-02T04:49:16.009Z,18.82
2022-09-02T04:51:46.987Z,18.88
2022-09-02T04:54:18.492Z,18.84
2022-09-02T04:56:51.018Z,18.76
2022-09-02T04:59:22.079Z,18.75
2022-09-02T05:02:05.230Z,18.67
2022-09-02T05:04:34.708Z,18.64
2022-09-02T05:07:04.940Z,18.62
2022-09-02T05:09:42.129Z,18.53
2022-09-02T05:12:11.977Z,18.50
2022-09-02T05:14:54.702Z,18.30
2022-09-02T05:17:26.959Z,18.38
2022-09-02T05:19:57.148Z,18.31
2022-09-02T05:22:29.389Z,18.25
2022-09-02T05:25:02.792Z,18.15
2022-09-02T05:27:33.285Z,18.10
2022-09-02T05:30:03.573Z,18.05
2022-09-02T05:32:37.708Z,17.88
2022-09-02T05:35:09.195Z,17.92
2022-09-02T05:37:39.179Z,17.83
2022-09-02T05:40:14.753Z,17.73
2022-09-02T05:42:45.844Z,17.76
2022-09-02T05:45:19.019Z,17.58
2022-09-02T05:47:49.614Z,17.73
2022-09-02T05:50:20.678Z,17.61
2022-09-02T05:52:52.664Z,17.56
2022-09-02T05:55:25.040Z,17.75
2022-09-02T05:57:54.410Z,17.78
2022-09-02T06:00:25.884Z,17.74
2022-09-02T06:03:01.578Z,17.78
2022-09-02T06:05:38.389Z,17.83
2022-09-02T06:08:21.149Z,17.89
2022-09-02T06:10:52.863Z,17.75
2022-09-02T06:13:24.981Z,17.92
2022-09-02T06:15:57.976Z,17.89
2022-09-02T06:18:32.288Z,17.85
2022-09-02T06:21:02.069Z,17.81
2022-09-02T06:23:39.297Z,17.86
2022-09-02T06:26:14.418Z,17.95
2022-09-02T06:28:43.942Z,17.93
2022-09-02T06:31:16.812Z,17.98
2022-09-02T06:33:48.478Z,17.91
2022-09-02T06:36:21.947Z,17.98
2022-09-02T06:39:00.206Z,18.00
2022-09-02T06:41:34.627Z,18.03
2022-09-02T06:44:10.786Z,18.01
2022-09-02T06:46:44.689Z,17.95
2022-09-02T06:49:17.364Z,18.11
2022-09-02T06:51:51.706Z,18.10
2022-09-02T06:54:24.064Z,18.18
2022-09-02T06:57:00.603Z,18.20
2022-09-02T06:59:30.060Z,17.95
2022-09-02T07:02:00.924Z,18.25
2022-09-02T07:04:48.199Z,18.33
2022-09-02T07:07:21.941Z,18.33
2022-09-02T07:09:57.103Z,18.49
2022-09-02T07:12:27.995Z,18.56
2022-09-02T07:15:09.063Z,18.67
2022-09-02T07:17:43.061Z,18.70
2022-09-02T07:20:28.283Z,18.80
2022-09-02T07:23:01.890Z,18.77
2022-09-02T07:25:34.176Z,18.85
2022-09-02T07:28:05.730Z,19.05
2022-09-02T07:30:39.676Z,19.22
2022-09-02T07:33:14.811Z,19.40
2022-09-02T07:35:47.127Z,19.48
2022-09-02T07:38:19.285Z,19.52
2022-09-02T07:40:50.873Z,19.60
2022-09-02T07:43:29.803Z,19.51
2022-09-02T07:46:01.008Z,19.53
2022-09-02T07:48:32.403Z,19.50
2022-09-02T07:51:03.932Z,19.40
2022-09-02T07:53:34.019Z,19.48
2022-09-02T07:56:04.443Z,19.55
2022-09-02T07:58:36.193Z,19.65
2022-09-02T08:01:06.909Z,19.70
2022-09-02T08:03:39.743Z,19.71
2022-09-02T08:06:11.356Z,19.78
2022-09-02T08:08:41.265Z,19.82
2022-09-02T08:11:11.298Z,19.79
2022-09-02T08:13:42.069Z,19.80
2022-09-02T08:16:11.875Z,19.93
2022-09-02T08:18:41.088Z,19.98
2022-09-02T08:21:10.675Z,20.05
2022-09-02T08:23:40.882Z,20.21
2022-09-02T08:26:11.320Z,20.33
2022-09-02T08:28:41.939Z,20.43
2022-09-02T08:31:11.135Z,20.58
2022-09-02T08:33:40.306Z,20.75
2022-09-02T08:36:12.094Z,20.88
2022-09-02T08:38:41.308Z,21.16
2022-09-02T08:41:21.518Z,21.52
2022-09-02T08:43:55.481Z,21.65
2022-09-02T08:46:28.891Z,22.01
2022-09-02T08:49:01.899Z,22.44
2022-09-02T08:51:37.661Z,22.91
2022-09-02T08:54:15.143Z,23.44
2022-09-02T08:56:44.440Z,23.85
2022-09-02T08:59:15.919Z,24.46
2022-09-02T09:01:52.231Z,24.62
2022-09-02T09:04:38.501Z,25.50
2022-09-02T09:07:21.692Z,26.07
2022-09-02T09:10:10.557Z,26.28
2022-09-02T09:13:08.574Z,26.69
2022-09-02T09:15:48.637Z,26.98
2022-09-02T09:18:22.209Z,27.35
2022-09-02T09:20:51.394Z,27.60
2022-09-02T09:23:33.979Z,27.28
2022-09-02T09:26:10.608Z,26.72
2022-09-02T09:28:42.536Z,26.40
2022-09-02T09:31:18.130Z,25.81
2022-09-02T09:33:59.341Z,25.46
2022-09-02T09:36:53.628Z,24.94
2022-09-02T09:39:30.104Z,24.59
2022-09-02T09:42:01.842Z,24.24
2022-09-02T09:44:48.326Z,24.00
2022-09-02T09:47:22.981Z,23.93
2022-09-02T09:49:54.878Z,24.16
2022-09-02T09:52:26.896Z,24.19
2022-09-02T09:55:24.705Z,24.19
2022-09-02T09:58:08.398Z,24.25
2022-09-02T10:00:39.154Z,24.05
2022-09-02T10:03:10.014Z,23.91
2022-09-02T10:05:41.290Z,23.75
2022-09-02T10:08:22.769Z,23.65
2022-09-02T10:11:01.566Z,23.65
2022-09-02T10:13:33.433Z,23.56
2022-09-02T10:16:16.503Z,23.40
2022-09-02T10:18:54.801Z,23.16
2022-09-02T10:21:45.107Z,23.03
2022-09-02T10:24:43.890Z,22.64
2022-09-02T10:27:18.238Z,22.96
2022-09-02T10:30:00.195Z,22.94
2022-09-02T10:33:02.413Z,23.07
2022-09-02T10:35:43.657Z,23.03
2022-09-02T10:38:37.263Z,23.08
2022-09-02T10:41:24.550Z,22.98
2022-09-02T10:44:36.788Z,23.07
2022-09-02T10:47:16.229Z,23.12
2022-09-02T10:50:11.750Z,23.17
2022-09-02T10:53:09.795Z,23.11
2022-09-02T10:55:58.689Z,23.05
2022-09-02T10:58:40.667Z,23.11
2022-09-02T11:01:14.711Z,22.99
2022-09-02T11:04:03.642Z,23.13
2022-09-02T11:06:58.809Z,23.01
2022-09-02T11:09:37.097Z,22.94
2022-09-02T11:12:15.245Z,23.07
2022-09-02T11:15:00.342Z,22.67
2022-09-02T11:17:38.191Z,23.36
2022-09-02T11:20:17.494Z,23.98
2022-09-02T11:22:56.653Z,24.79
2022-09-02T11:25:34.050Z,25.70
2022-09-02T11:28:23.255Z,26.51
2022-09-02T11:31:01.364Z,27.20
2022-09-02T11:33:39.767Z,27.56
2022-09-02T11:36:09.401Z,28.00
2022-09-02T11:38:45.271Z,28.15
2022-09-02T11:41:35.782Z,27.96
2022-09-02T11:44:31.498Z,27.80
2022-09-02T11:47:45.535Z,27.95
2022-09-02T11:50:39.459Z,28.03
2022-09-02T11:53:22.929Z,28.17
2022-09-02T11:55:56.512Z,28.23
2022-09-02T11:58:39.210Z,28.21
2022-09-02T12:01:28.931Z,27.94
2022-09-02T12:07:48.349Z,27.20
2022-09-02T12:11:02.238Z,26.96
2022-09-02T12:13:41.225Z,26.83
2022-09-02T12:16:41.487Z,26.52
2022-09-02T12:19:42.147Z,26.49
2022-09-02T12:22:38.778Z,26.27
2022-09-02T12:25:48.382Z,26.03
2022-09-02T12:28:27.448Z,25.94
2022-09-02T12:31:43.116Z,25.62
2022-09-02T12:34:57.049Z,25.49
2022-09-02T12:37:57.116Z,25.34
2022-09-02T12:40:38.808Z,25.17
2022-09-02T12:43:27.707Z,24.92
2022-09-02T12:46:13.278Z,24.82
2022-09-02T12:49:11.952Z,24.62
2022-09-02T12:51:57.173Z,24.23
2022-09-02T12:54:44.555Z,23.91
2022-09-02T12:57:16.364Z,23.44
2022-09-02T12:59:48.096Z,23.39
2022-09-02T13:02:57.424Z,23.41
2022-09-02T13:05:38.416Z,23.27
2022-09-02T13:08:44.359Z,23.16
2022-09-02T13:11:49.678Z,23.01
2022-09-02T13:14:51.052Z,22.86
2022-09-02T13:17:45.886Z,22.64
2022-09-02T13:21:06.210Z,22.38
2022-09-02T13:24:40.833Z,22.23
2022-09-02T13:27:41.353Z,22.11
2022-09-02T13:30:20.041Z,22.18
2022-09-02T13:33:01.077Z,22.25
2022-09-02T13:35:31.225Z,22.46
2022-09-02T13:38:06.333Z,22.42
2022-09-02T13:40:41.193Z,22.50
2022-09-02T13:43:20.823Z,22.70
2022-09-02T13:45:51.814Z,22.92
2022-09-02T13:48:24.746Z,23.17
2022-09-02T13:50:57.243Z,23.28
2022-09-02T13:53:53.894Z,23.46
2022-09-02T13:56:25.252Z,23.72
2022-09-02T13:58:57.171Z,23.76
2022-09-02T14:01:30.598Z,23.73
2022-09-02T14:06:42.511Z,24.29
2022-09-02T14:09:22.347Z,24.39
2022-09-02T14:11:53.262Z,24.54
2022-09-02T14:14:26.067Z,24.48
2022-09-02T14:17:23.661Z,24.41
2022-09-02T14:19:53.968Z,24.39
2022-09-02T14:22:29.957Z,24.35
2022-09-02T14:25:00.763Z,24.28
2022-09-02T14:27:30.110Z,24.22
2022-09-02T14:29:59.797Z,24.12
2022-09-02T14:32:30.240Z,24.02
2022-09-02T14:35:22.085Z,23.84
2022-09-02T14:37:59.288Z,23.75
2022-09-02T14:40:39.463Z,23.56
2022-09-02T14:43:14.796Z,23.41
2022-09-02T14:45:48.870Z,23.33
2022-09-02T14:48:23.674Z,23.15
2022-09-02T14:51:02.832Z,23.00
2022-09-02T14:53:33.179Z,22.93
2022-09-02T14:56:04.288Z,22.74
2022-09-02T14:58:33.526Z,22.78
2022-09-02T15:01:04.738Z,22.86
2022-09-02T15:03:39.406Z,23.12
2022-09-02T15:06:13.149Z,23.27
2022-09-02T15:08:44.606Z,23.58
2022-09-02T15:11:20.362Z,23.85
2022-09-02T15:13:49.623Z,23.93
2022-09-02T15:16:18.919Z,23.96
2022-09-02T15:18:48.138Z,23.62
2022-09-02T15:21:18.163Z,23.81
2022-09-02T15:23:51.057Z,23.87
2022-09-02T15:26:22.110Z,23.85
2022-09-02T15:28:52.093Z,23.89
2022-09-02T15:31:21.814Z,23.84
2022-09-02T15:33:52.522Z,23.82
2022-09-02T15:36:23.633Z,23.80
2022-09-02T15:38:52.820Z,23.70
2022-09-02T15:41:27.230Z,23.43
2022-09-02T15:43:56.797Z,23.60
2022-09-02T15:46:28.869Z,23.59
2022-09-02T15:49:04.941Z,23.60
2022-09-02T15:51:35.381Z,23.59
2022-09-02T15:54:09.195Z,23.56
2022-09-02T15:56:42.376Z,23.55
2022-09-02T15:59:14.734Z,23.49
2022-09-02T16:01:46.639Z,23.49
2022-09-02T16:04:17.015Z,23.49
2022-09-02T16:06:49.272Z,23.42
2022-09-02T16:09:19.805Z,23.40
2022-09-02T16:11:56.254Z,23.29
2022-09-02T16:14:26.577Z,23.28
2022-09-02T16:16:57.572Z,23.15
2022-09-02T16:19:30.344Z,23.18
2022-09-02T16:22:01.923Z,23.21
2022-09-02T16:24:31.711Z,23.22
2022-09-02T16:27:03.295Z,23.09
2022-09-02T16:29:33.115Z,23.14
2022-09-02T16:32:23.718Z,23.19
2022-09-02T16:34:53.487Z,23.03
2022-09-02T16:37:22.847Z,22.86
2022-09-02T16:39:53.381Z,23.11
2022-09-02T16:42:24.716Z,23.08
2022-09-02T16:44:56.438Z,23.00
2022-09-02T16:47:25.604Z,23.04
2022-09-02T16:49:55.209Z,22.92
2022-09-02T16:52:24.454Z,23.04
2022-09-02T16:54:53.762Z,22.93
2022-09-02T16:57:25.376Z,22.94
2022-09-02T16:59:54.774Z,23.00
2022-09-02T17:02:28.318Z,23.10
2022-09-02T17:04:58.041Z,23.15
2022-09-02T17:07:27.300Z,23.13
2022-09-02T17:09:56.411Z,23.11
2022-09-02T17:12:27.040Z,23.13
2022-09-02T17:14:56.406Z,23.17
2022-09-02T17:17:25.592Z,23.05
2022-09-02T17:19:54.847Z,23.19
2022-09-02T17:22:23.970Z,23.15
2022-09-02T17:24:57.082Z,23.18
2022-09-02T17:27:28.366Z,23.13
2022-09-02T17:30:00.096Z,23.08
2022-09-02T17:32:29.389Z,23.05
2022-09-02T17:34:58.798Z,23.02
2022-09-02T17:37:28.047Z,23.00
2022-09-02T17:39:57.296Z,22.93
2022-09-02T17:42:26.871Z,22.99
2022-09-02T17:44:55.985Z,22.97
2022-09-02T17:47:26.076Z,22.87
2022-09-02T17:49:55.226Z,22.84
2022-09-02T17:52:25.951Z,22.83
2022-09-02T17:54:58.086Z,22.83
2022-09-02T17:57:42.746Z,22.54
2022-09-02T18:00:16.192Z,22.63
2022-09-02T18:03:31.270Z,22.56
2022-09-02T18:06:11.801Z,22.63
2022-09-02T18:08:51.494Z,22.51
2022-09-02T18:11:22.500Z,22.48
2022-09-02T18:14:05.754Z,22.43
2022-09-02T18:16:40.074Z,22.41
2022-09-02T18:19:20.372Z,22.34
2022-09-02T18:22:10.416Z,22.32
2022-09-02T18:25:04.288Z,22.29
2022-09-02T18:27:52.626Z,22.28
2022-09-02T18:30:27.551Z,22.25
2022-09-02T18:33:25.194Z,22.17
2022-09-02T18:36:07.429Z,21.92
2022-09-02T18:38:47.906Z,22.08
2022-09-02T18:41:39.338Z,22.06
2022-09-02T18:44:23.528Z,22.02
2022-09-02T18:47:03.561Z,21.89
2022-09-02T18:49:37.822Z,21.92
2022-09-02T18:52:11.591Z,21.84
2022-09-02T18:54:47.469Z,21.81
2022-09-02T18:57:16.956Z,21.68
2022-09-02T18:59:55.937Z,21.50
2022-09-02T19:02:35.808Z,21.62
2022-09-02T19:05:09.850Z,21.59
2022-09-02T19:07:57.784Z,21.57
2022-09-02T19:10:26.988Z,21.52
2022-09-02T19:12:58.835Z,21.58
2022-09-02T19:15:28.294Z,21.52
2022-09-02T19:17:59.913Z,21.54
2022-09-02T19:20:29.290Z,21.49
2022-09-02T19:22:59.558Z,21.42
2022-09-02T19:25:31.709Z,21.48
2022-09-02T19:28:03.342Z,21.49
2022-09-02T19:30:37.479Z,21.39
2022-09-02T19:33:13.950Z,21.44
2022-09-02T19:35:49.127Z,21.45
2022-09-02T19:38:20.977Z,21.48
2022-09-02T19:40:50.511Z,21.51
2022-09-02T19:43:20.427Z,21.51
2022-09-02T19:45:51.418Z,21.48
2022-09-02T19:48:22.910Z,21.41
2022-09-02T19:50:52.350Z,21.37
2022-09-02T19:53:27.972Z,21.32
2022-09-02T19:55:57.304Z,21.35
2022-09-02T19:58:29.285Z,21.37
2022-09-02T20:00:59.398Z,21.29
2022-09-02T20:03:30.482Z,21.44
2022-09-02T20:06:01.237Z,21.29
2022-09-02T20:08:34.585Z,21.38
2022-09-02T20:11:06.805Z,21.34
2022-09-02T20:13:41.442Z,21.29
2022-09-02T20:16:21.943Z,21.33
2022-09-02T20:18:56.949Z,21.29
2022-09-02T20:21:29.386Z,21.11
2022-09-02T20:24:04.825Z,21.21
2022-09-02T20:26:56.620Z,21.19
2022-09-02T20:29:43.337Z,21.20
2022-09-02T20:32:26.875Z,21.22
2022-09-02T20:35:12.670Z,21.15
2022-09-02T20:37:53.122Z,21.14
2022-09-02T20:40:46.021Z,21.02
2022-09-02T20:43:41.458Z,21.08
2022-09-02T20:46:29.237Z,20.88
2022-09-02T20:49:16.815Z,20.93
2022-09-02T20:52:01.011Z,20.91
2022-09-02T20:54:47.722Z,20.89
2022-09-02T20:57:35.488Z,20.82
2022-09-02T21:00:10.615Z,20.84
2022-09-02T21:02:50.040Z,20.78
2022-09-02T21:05:24.341Z,20.75
2022-09-02T21:08:04.238Z,20.59
2022-09-02T21:10:39.570Z,20.49
2022-09-02T21:13:16.753Z,20.75
2022-09-02T21:15:50.518Z,20.75
2022-09-02T21:18:27.819Z,20.50
2022-09-02T21:21:06.076Z,20.75
2022-09-02T21:23:42.996Z,20.67
2022-09-02T21:26:20.830Z,20.40
2022-09-02T21:28:58.186Z,20.76
2022-09-02T21:31:34.416Z,20.71
2022-09-02T21:34:12.392Z,20.74
2022-09-02T21:36:41.682Z,20.73
2022-09-02T21:39:19.286Z,20.65
2022-09-02T21:41:58.944Z,20.68
2022-09-02T21:44:43.614Z,20.66
2022-09-02T21:47:23.400Z,20.66
2022-09-02T21:50:11.142Z,20.53
2022-09-02T21:52:59.516Z,20.56
2022-09-02T21:55:49.752Z,20.56
2022-09-02T21:58:50.638Z,20.59
2022-09-02T22:01:35.453Z,20.54
2022-09-02T22:04:12.392Z,20.55
2022-09-02T22:06:46.199Z,20.37
2022-09-02T22:09:21.314Z,20.51
2022-09-02T22:12:00.131Z,20.51
2022-09-02T22:14:38.307Z,20.44
2022-09-02T22:17:17.310Z,20.47
2022-09-02T22:19:51.134Z,20.43
2022-09-02T22:22:24.602Z,20.46
2022-09-02T22:24:55.228Z,20.44
2022-09-02T22:27:34.306Z,20.44
2022-09-02T22:30:09.039Z,20.39
2022-09-02T22:32:42.021Z,20.38
2022-09-02T22:35:25.176Z,20.28
2022-09-02T22:38:02.534Z,20.35
2022-09-02T22:40:37.519Z,20.36
2022-09-02T22:43:15.259Z,20.35
2022-09-02T22:46:10.310Z,20.31
2022-09-02T22:49:01.046Z,20.37
2022-09-02T22:52:03.394Z,20.29
2022-09-02T22:54:32.639Z,20.29
2022-09-02T22:57:08.846Z,20.35
2022-09-02T22:59:57.257Z,20.34
2022-09-02T23:02:37.617Z,20.35
2022-09-02T23:05:45.514Z,20.34
2022-09-02T23:08:17.671Z,20.29
2022-09-02T23:10:52.093Z,20.28
2022-09-02T23:13:37.460Z,20.23
2022-09-02T23:16:20.145Z,20.16
2022-09-02T23:19:01.035Z,20.21
2022-09-02T23:21:41.157Z,20.22
2022-09-02T23:24:23.629Z,20.17
2022-09-02T23:27:03.854Z,20.06
2022-09-02T23:29:35.658Z,20.11
2022-09-02T23:32:43.830Z,19.93
2022-09-02T23:35:21.481Z,19.95
2022-09-02T23:38:11.875Z,19.93
2022-09-02T23:40:44.522Z,19.93
2022-09-02T23:43:16.726Z,19.97
2022-09-02T23:45:47.415Z,19.93
2022-09-02T23:48:39.598Z,19.89
2022-09-02T23:51:19.762Z,19.89
2022-09-02T23:54:19.469Z,19.94
2022-09-02T23:57:17.266Z,19.90
